EINN 200130Z 16010KT 9999 FEW035 SCT190 11/09 Q1013 NOSIG EINN 200100Z 16011KT 9999 FEW040 11/09 Q1013 NOSIG EINN 200030Z 16012KT 9999 FEW040 11/09 Q1013 NOSIG EINN 200000Z 15007KT 9999 FEW040 11/08 Q1014 NOSIG EINN 192330Z 16010KT 9999 FEW040 12/08 Q1014 NOSIG EINN 192300Z 17010KT 9999 FEW040 SCT200 12/08 Q1014 NOSIG EINN 192230Z 16011KT 9999 FEW030 SCT200 12/08 Q1014 NOSIG EINN 192200Z 17012KT 9999 FEW030 SCT200 12/09 Q1014 NOSIG EINN 192130Z 17012KT 9999 FEW015 SCT200 13/09 Q1014 NOSIG EINN 192100Z 17014KT 9999 FEW014 SCT220 13/09 Q1014 NOSIG EINN 192030Z 17013KT 9999 FEW014 BKN200 13/09 Q1014 NOSIG EINN 192000Z 16013KT 9999 FEW024 BKN240 14/09 Q1014 NOSIG EINN 191930Z 16010KT 9999 FEW023 SCT080 BKN200 14/10 Q1014 NOSIG EINN 191900Z 17011KT 9999 FEW023 SCT030 BKN080 14/10 Q1014 NOSIG EINN 191830Z 18014KT 9999 FEW023 SCT031 BKN080 15/09 Q1014 NOSIG EINN 191800Z 18016KT 9999 FEW023 BKN030 BKN080 15/09 Q1014 NOSIG EINN 191730Z 19013KT 9999 FEW023 BKN034 15/09 Q1014 NOSIG EINN 191700Z 21016KT 9999 FEW023 BKN036 BKN044 15/08 Q1014 NOSIG EINN 191630Z 21015KT 9999 FEW023 BKN048 16/10 Q1014 NOSIG EINN 191600Z 20019KT 9999 FEW023 BKN045 16/08 Q1014 NOSIG EINN 191530Z 20016KT 9999 FEW023 BKN060 16/08 Q1014 NOSIG EINN 191500Z 20019KT 9999 FEW023 BKN050 16/07 Q1014 NOSIG EINN 191430Z 19018KT 9999 FEW023 BKN060 18/06 Q1014 NOSIG EINN 191400Z 20018KT 9999 FEW023 SCT050 18/06 Q1014 NOSIG EINN 191330Z 21016KT 9999 FEW023 SCT050 18/07 Q1013 NOSIG EINN 191300Z 20019KT 9999 FEW022 SCT040 17/07 Q1013 NOSIG EINN 191230Z 20014KT 9999 FEW022 SCT040 17/07 Q1013 NOSIG EINN 191200Z 20019KT 9999 FEW022 SCT040 17/06 Q1013 NOSIG EINN 191130Z 19017KT 9999 FEW022 BKN040 17/07 Q1013 NOSIG EINN 191100Z 19012KT 9999 FEW022 BKN040 BKN100 16/07 Q1014 NOSIG EINN 191030Z 21016KT 9999 FEW022 BKN040 BKN120 15/06 Q1014 NOSIG EINN 191000Z 20016KT 9999 FEW022 SCT030 BKN120 15/05 Q1013 NOSIG EINN 190930Z 19016KT 9999 FEW022 SCT030 BKN120 15/07 Q1014 NOSIG EINN 190900Z 20012KT 170V240 9999 FEW022 BKN028 BKN040 14/08 Q1014 NOSIG EINN 190830Z 18015KT 9999 FEW020 BKN040 14/08 Q1014 NOSIG EINN 190800Z 17012KT 9999 FEW022 13/09 Q1013 NOSIG EINN 190730Z 16012KT 9999 FEW022 12/08 Q1014 NOSIG EINN 190700Z 15011KT 9999 FEW045 11/08 Q1013 NOSIG EINN 190630Z 14011KT 9999 FEW045 10/07 Q1013 NOSIG EINN 190600Z 15011KT 9999 FEW045 09/07 Q1013 NOSIG EINN 190530Z 15010KT 9999 FEW045 09/06 Q1013 NOSIG EINN 190500Z 14010KT 9999 FEW045 09/06 Q1013 NOSIG EINN 190430Z 13008KT 9999 FEW045 09/06 Q1012 NOSIG EINN 190400Z 13005KT 100V190 CAVOK 09/06 Q1012 NOSIG EINN 190330Z 11005KT 080V170 9999 FEW045 09/06 Q1012 NOSIG EINN 190300Z 18007KT 9999 FEW045 09/06 Q1012 NOSIG EINN 190230Z 18009KT 9999 FEW040 09/06 Q1012 NOSIG EINN 190200Z 18009KT 9999 FEW040 09/06 Q1012 NOSIG EINN 190130Z 17009KT 9999 FEW035 09/07 Q1012 NOSIG EINN 190100Z 16008KT 9999 FEW040 08/07 Q1012 NOSIG EINN 190030Z 17010KT 9999 FEW040 09/07 Q1012 NOSIG EINN 190000Z 17009KT 9999 FEW035 09/07 Q1012 NOSIG EINN 182330Z 16009KT 9999 FEW040 09/07 Q1011 NOSIG EINN 182300Z 18008KT 9999 FEW032 09/07 Q1011 NOSIG EINN 182230Z 16007KT 9999 FEW040 10/07 Q1011 NOSIG EINN 182200Z 19007KT 150V220 9999 FEW018 10/08 Q1011 NOSIG EINN 182130Z 23013KT 9999 FEW025 11/08 Q1010 NOSIG EINN 182100Z 24015KT 9999 FEW018 11/08 Q1009 NOSIG EINN 182030Z 24016KT 9999 FEW018 11/09 Q1009 NOSIG EINN 182000Z 23018KT 9999 FEW014 FEW018CB BKN032 12/09 Q1008 NOSIG EINN 181930Z 21021KT 9999 -SHRA FEW012 SCT018CB BKN050 12/10 Q1007 NOSIG EINN 181900Z 19017KT 9999 -SHRA FEW012 SCT018CB BKN050 13/10 Q1006 NOSIG EINN 181830Z 18015KT 9999 FEW018CB BKN036 13/09 Q1005 NOSIG EINN 181800Z 17012KT 9999 FEW019 SCT060 BKN130 13/09 Q1005 NOSIG EINN 181730Z 17017KT 9999 FEW019 SCT140 12/09 Q1005 NOSIG EINN 181700Z 17015KT 9999 -RA FEW019 SCT050 BKN080 12/09 Q1005 NOSIG EINN 181630Z 16014KT 9999 FEW016 SCT040 BKN080 12/10 Q1005 RERA NOSIG EINN 181600Z 17012KT 9999 -RA FEW016 BKN048 BKN090 11/09 Q1005 RERA NOSIG EINN 181530Z 18023G35KT 2500 RA BKN016 BKN023 13/11 Q1006 TEMPO SHRA EINN 181500Z 17017KT 9999 -RA FEW016 BKN024 BKN038 15/11 Q1005 TEMPO SHRA EINN 181430Z 16025KT 9999 FEW022 SCT036 BKN050 16/10 Q1005 NOSIG EINN 181400Z 16024G34KT 9999 FEW022 SCT036 BKN050 16/10 Q1006 NOSIG

METAR Messwerte "SHANNON AIRPORT" EINN

Zurück zur Übersicht

Ortsname
Ländercode / m ü. NN
Zeit Temperatur Taupunkt Rel.
Luftfeuchte
Luftdruck:
Altimeter
NN
Station
Wind in Beaufort
(Knoten)
Sichtweite
(Meter)
Wolken
(Meter über Grund)
Wettererscheinung
SHANNON AIRPORT
IE 20
Fr 20.05. 03:3011987 %1013
1013
1011
SSO 3 (10)>= 10000Wolkig (5800)
Leicht bewölkt (1100)
 
SHANNON AIRPORT
IE 20
Fr 20.05. 03:0011987 %1013
1013
1011
SSO 4 (11)>= 10000Leicht bewölkt (1200) 
SHANNON AIRPORT
IE 20
Fr 20.05. 02:3011987 %1013
1013
1011
SSO 4 (12)>= 10000Leicht bewölkt (1200) 
SHANNON AIRPORT
IE 20
Fr 20.05. 02:0011882 %1014
1014
1012
SSO 3 (7)>= 10000Leicht bewölkt (1200) 
SHANNON AIRPORT
IE 20
Fr 20.05. 01:3012876 %1014
1014
1012
SSO 3 (10)>= 10000Leicht bewölkt (1200) 
SHANNON AIRPORT
IE 20
Fr 20.05. 01:0012876 %1014
1014
1012
S 3 (10)>= 10000Wolkig (6100)
Leicht bewölkt (1200)
 
SHANNON AIRPORT
IE 20
Fr 20.05. 00:3012876 %1014
1014
1012
SSO 4 (11)>= 10000Wolkig (6100)
Leicht bewölkt (910)
 
SHANNON AIRPORT
IE 20
Fr 20.05. 00:0012982 %1014
1014
1012
S 4 (12)>= 10000Wolkig (6100)
Leicht bewölkt (910)
 
SHANNON AIRPORT
IE 20
Do 19.05. 23:3013977 %1014
1014
1012
S 4 (12)>= 10000Wolkig (6100)
Leicht bewölkt (460)
 
SHANNON AIRPORT
IE 20
Do 19.05. 23:0013977 %1014
1014
1012
S 4 (14)>= 10000Wolkig (6700)
Leicht bewölkt (430)
 
SHANNON AIRPORT
IE 20
Do 19.05. 22:3013977 %1014
1014
1012
S 4 (13)>= 10000Stark bewölkt (6100)
Leicht bewölkt (430)
 
SHANNON AIRPORT
IE 20
Do 19.05. 22:0014972 %1014
1014
1012
SSO 4 (13)>= 10000Stark bewölkt (7300)
Leicht bewölkt (730)
 
SHANNON AIRPORT
IE 20
Do 19.05. 21:30141077 %1014
1014
1012
SSO 3 (10)>= 10000Stark bewölkt (6100)
Wolkig (2400)
Leicht bewölkt (700)
 
SHANNON AIRPORT
IE 20
Do 19.05. 21:00141077 %1014
1014
1012
S 4 (11)>= 10000Stark bewölkt (2400)
Wolkig (910)
Leicht bewölkt (700)
 
SHANNON AIRPORT
IE 20
Do 19.05. 20:3015967 %1014
1014
1012
S 4 (14)>= 10000Stark bewölkt (2400)
Wolkig (940)
Leicht bewölkt (700)
 
SHANNON AIRPORT
IE 20
Do 19.05. 20:0015967 %1014
1014
1012
S 5 (16)>= 10000Stark bewölkt (2400)
Stark bewölkt (910)
Leicht bewölkt (700)
 
SHANNON AIRPORT
IE 20
Do 19.05. 19:3015967 %1014
1014
1012
S 4 (13)>= 10000Stark bewölkt (1000)
Leicht bewölkt (700)
 
SHANNON AIRPORT
IE 20
Do 19.05. 19:0015863 %1014
1014
1012
SSW 5 (16)>= 10000Stark bewölkt (1300)
Stark bewölkt (1100)
Leicht bewölkt (700)
 
SHANNON AIRPORT
IE 20
Do 19.05. 18:30161068 %1014
1014
1012
SSW 4 (15)>= 10000Stark bewölkt (1500)
Leicht bewölkt (700)
 
SHANNON AIRPORT
IE 20
Do 19.05. 18:0016859 %1014
1014
1012
SSW 5 (19)>= 10000Stark bewölkt (1400)
Leicht bewölkt (700)
 
SHANNON AIRPORT
IE 20
Do 19.05. 17:3016859 %1014
1014
1012
SSW 5 (16)>= 10000Stark bewölkt (1800)
Leicht bewölkt (700)
 
SHANNON AIRPORT
IE 20
Do 19.05. 17:0016755 %1014
1014
1012
SSW 5 (19)>= 10000Stark bewölkt (1500)
Leicht bewölkt (700)
 
SHANNON AIRPORT
IE 20
Do 19.05. 16:3018645 %1014
1014
1012
S 5 (18)>= 10000Stark bewölkt (1800)
Leicht bewölkt (700)
 
SHANNON AIRPORT
IE 20
Do 19.05. 16:0018645 %1014
1014
1012
SSW 5 (18)>= 10000Wolkig (1500)
Leicht bewölkt (700)
 
SHANNON AIRPORT
IE 20
Do 19.05. 15:3018749 %1013
1013
1011
SSW 5 (16)>= 10000Wolkig (1500)
Leicht bewölkt (700)
 
SHANNON AIRPORT
IE 20
Do 19.05. 15:0017752 %1013
1013
1011
SSW 5 (19)>= 10000Wolkig (1200)
Leicht bewölkt (670)
 
SHANNON AIRPORT
IE 20
Do 19.05. 14:3017752 %1013
1013
1011
SSW 4 (14)>= 10000Wolkig (1200)
Leicht bewölkt (670)
 
SHANNON AIRPORT
IE 20
Do 19.05. 14:0017648 %1013
1013
1011
SSW 5 (19)>= 10000Wolkig (1200)
Leicht bewölkt (670)
 
SHANNON AIRPORT
IE 20
Do 19.05. 13:3017752 %1013
1013
1011
S 5 (17)>= 10000Stark bewölkt (1200)
Leicht bewölkt (670)
 
SHANNON AIRPORT
IE 20
Do 19.05. 13:0016755 %1014
1014
1012
S 4 (12)>= 10000Stark bewölkt (3000)
Stark bewölkt (1200)
Leicht bewölkt (670)
 
SHANNON AIRPORT
IE 20
Do 19.05. 12:3015655 %1014
1014
1012
SSW 5 (16)>= 10000Stark bewölkt (3700)
Stark bewölkt (1200)
Leicht bewölkt (670)
 
SHANNON AIRPORT
IE 20
Do 19.05. 12:0015551 %1013
1013
1011
SSW 5 (16)>= 10000Stark bewölkt (3700)
Wolkig (910)
Leicht bewölkt (670)
 
SHANNON AIRPORT
IE 20
Do 19.05. 11:3015759 %1014
1014
1012
S 5 (16)>= 10000Stark bewölkt (3700)
Wolkig (910)
Leicht bewölkt (670)
 
SHANNON AIRPORT
IE 20
Do 19.05. 11:0014867 %1014
1014
1012
SSW 4 (12)
S - WSW
>= 10000Stark bewölkt (1200)
Stark bewölkt (850)
Leicht bewölkt (670)
 
SHANNON AIRPORT
IE 20
Do 19.05. 10:3014867 %1014
1014
1012
S 4 (15)>= 10000Stark bewölkt (1200)
Leicht bewölkt (610)
 
SHANNON AIRPORT
IE 20
Do 19.05. 10:0013977 %1013
1013
1011
S 4 (12)>= 10000Leicht bewölkt (670) 
SHANNON AIRPORT
IE 20
Do 19.05. 09:3012876 %1014
1014
1012
SSO 4 (12)>= 10000Leicht bewölkt (670) 
SHANNON AIRPORT
IE 20
Do 19.05. 09:0011882 %1013
1013
1011
SSO 4 (11)>= 10000Leicht bewölkt (1400) 
SHANNON AIRPORT
IE 20
Do 19.05. 08:3010782 %1013
1013
1011
SO 4 (11)>= 10000Leicht bewölkt (1400) 
SHANNON AIRPORT
IE 20
Do 19.05. 08:009787 %1013
1013
1011
SSO 4 (11)>= 10000Leicht bewölkt (1400) 
SHANNON AIRPORT
IE 20
Do 19.05. 07:309681 %1013
1013
1011
SSO 3 (10)>= 10000Leicht bewölkt (1400) 
SHANNON AIRPORT
IE 20
Do 19.05. 07:009681 %1013
1013
1011
SO 3 (10)>= 10000Leicht bewölkt (1400) 
SHANNON AIRPORT
IE 20
Do 19.05. 06:309681 %1012
1012
1010
SO 3 (8)>= 10000Leicht bewölkt (1400) 
SHANNON AIRPORT
IE 20
Do 19.05. 06:009681 %1012
1012
1010
SO 2 (5)
O - S
>= 10000Nicht signifikant 
SHANNON AIRPORT
IE 20
Do 19.05. 05:309681 %1012
1012
1010
OSO 2 (5)
O - S
>= 10000Leicht bewölkt (1400) 
SHANNON AIRPORT
IE 20
Do 19.05. 05:009681 %1012
1012
1010
S 3 (7)>= 10000Leicht bewölkt (1400) 
SHANNON AIRPORT
IE 20
Do 19.05. 04:309681 %1012
1012
1010
S 3 (9)>= 10000Leicht bewölkt (1200) 
SHANNON AIRPORT
IE 20
Do 19.05. 04:009681 %1012
1012
1010
S 3 (9)>= 10000Leicht bewölkt (1200) 
SHANNON AIRPORT
IE 20
Do 19.05. 03:309787 %1012
1012
1010
S 3 (9)>= 10000Leicht bewölkt (1100) 
SHANNON AIRPORT
IE 20
Do 19.05. 03:008793 %1012
1012
1010
SSO 3 (8)>= 10000Leicht bewölkt (1200) 
SHANNON AIRPORT
IE 20
Do 19.05. 02:309787 %1012
1012
1010
S 3 (10)>= 10000Leicht bewölkt (1200) 
SHANNON AIRPORT
IE 20
Do 19.05. 02:009787 %1012
1012
1010
S 3 (9)>= 10000Leicht bewölkt (1100) 
SHANNON AIRPORT
IE 20
Do 19.05. 01:309787 %1011
1011
1009
SSO 3 (9)>= 10000Leicht bewölkt (1200) 
SHANNON AIRPORT
IE 20
Do 19.05. 01:009787 %1011
1011
1009
S 3 (8)>= 10000Leicht bewölkt (980) 
SHANNON AIRPORT
IE 20
Do 19.05. 00:3010782 %1011
1011
1009
SSO 3 (7)>= 10000Leicht bewölkt (1200) 
SHANNON AIRPORT
IE 20
Do 19.05. 00:0010887 %1011
1011
1009
S 3 (7)
SSO - SW
>= 10000Leicht bewölkt (550) 
SHANNON AIRPORT
IE 20
Mi 18.05. 23:3011882 %1010
1010
1008
SW 4 (13)>= 10000Leicht bewölkt (760) 
SHANNON AIRPORT
IE 20
Mi 18.05. 23:0011882 %1009
1009
1007
WSW 4 (15)>= 10000Leicht bewölkt (550) 
SHANNON AIRPORT
IE 20
Mi 18.05. 22:3011987 %1009
1009
1007
WSW 5 (16)>= 10000Leicht bewölkt (550) 
SHANNON AIRPORT
IE 20
Mi 18.05. 22:0012982 %1008
1008
1006
SW 5 (18)>= 10000Stark bewölkt (980)
Leicht bewölkt Cb (550)
Leicht bewölkt (430)
 
SHANNON AIRPORT
IE 20
Mi 18.05. 21:30121088 %1007
1007
1005
SSW 6 (21)>= 10000Stark bewölkt (1500)
Wolkig Cb (550)
Leicht bewölkt (370)
Regen-Schauer (schwach)
SHANNON AIRPORT
IE 20
Mi 18.05. 21:00131082 %1006
1006
1004
S 5 (17)>= 10000Stark bewölkt (1500)
Wolkig Cb (550)
Leicht bewölkt (370)
Regen-Schauer (schwach)
SHANNON AIRPORT
IE 20
Mi 18.05. 20:3013977 %1005
1005
1003
S 4 (15)>= 10000Stark bewölkt (1100)
Leicht bewölkt Cb (550)
 
SHANNON AIRPORT
IE 20
Mi 18.05. 20:0013977 %1005
1005
1003
S 4 (12)>= 10000Stark bewölkt (4000)
Wolkig (1800)
Leicht bewölkt (580)
 
SHANNON AIRPORT
IE 20
Mi 18.05. 19:3012982 %1005
1005
1003
S 5 (17)>= 10000Wolkig (4300)
Leicht bewölkt (580)
 
SHANNON AIRPORT
IE 20
Mi 18.05. 19:0012982 %1005
1005
1003
S 4 (15)>= 10000Stark bewölkt (2400)
Wolkig (1500)
Leicht bewölkt (580)
Regen (schwach)
SHANNON AIRPORT
IE 20
Mi 18.05. 18:30121088 %1005
1005
1003
SSO 4 (14)>= 10000Stark bewölkt (2400)
Wolkig (1200)
Leicht bewölkt (490)
 
SHANNON AIRPORT
IE 20
Mi 18.05. 18:0011987 %1005
1005
1003
S 4 (12)>= 10000Stark bewölkt (2700)
Stark bewölkt (1500)
Leicht bewölkt (490)
Regen (schwach)
SHANNON AIRPORT
IE 20
Mi 18.05. 17:30131188 %1006
1006
1004
S 6 (23) - 8 (35)2500Stark bewölkt (700)
Stark bewölkt (490)
Regen
Bald zeitweise: Regen-Schauer
SHANNON AIRPORT
IE 20
Mi 18.05. 17:00151177 %1005
1005
1003
S 5 (17)>= 10000Stark bewölkt (1200)
Stark bewölkt (730)
Leicht bewölkt (490)
Regen (schwach)
Bald zeitweise: Regen-Schauer
SHANNON AIRPORT
IE 20
Mi 18.05. 16:30161068 %1005
1005
1003
SSO 6 (25)>= 10000Stark bewölkt (1500)
Wolkig (1100)
Leicht bewölkt (670)
 
SHANNON AIRPORT
IE 20
Mi 18.05. 16:00161068 %1006
1006
1004
SSO 6 (24) - 8 (34)>= 10000Stark bewölkt (1500)
Wolkig (1100)
Leicht bewölkt (670)
 

Altimeter: Einstellung am Altimeter (Höhenmesser), die Höhe 0 muss auf diesen Luftdruckwert zeigen, damit das Gerät die Stationshöhe richtig anzeigt.

NN: Luftdruck reduziert auf "Normal Null", auf Meereshöhe, dieser von der Temperatur abhängige Wert wird bisweilen unkorrekt einfach als "Luftdruck" bezeichnet. Eigentlich nur eine fiktive Größe, die es erlaubt, Stationen auf unterschiedlichen Höhen miteinander zu vergleichen.

Station: Realer Luftdruck an der Station.